Airport details for: LQTZ (Bosnia-Herzegovina)

Metar

LQTZ 301030Z VRB04KT 9999 SCT035 13/06 Q1017

General details

ICAO: LQTZ
IATA: TZL
Name (city): Tuzla
Major:
Country: Bosnia-Herzegovina
vACC: vACC Bosnia & Herzegovina
Description:

Tuzla International Airport is an airport near Tuzla, Bosnia and Herzegovina. The airport is a civilian airport and a military airbase. Its operating hours are from 06:00 to 20:00 LT for commercial air carriers and 06:00 to 17:00 LT for general/corporate aviation with a possible extension.

Scenery links:
FS9 scenery: Download
FSX/P3D scenery: Download
XP scenery: Download
Elevation: 784 ft.
Transition altitude: 9500 ft.
MSA: 8100 ft.
Latitude: 44.458653
Longitude: 18.724781
LQTZ Charts
LQTZ Notams
LQTZ Online stations

Runways

Number Course Length Elevation Lat Lon ILS ILS freq ILS FAC GP
09 93° 8150ft / 2484 m 765ft 44.459875 18.709264 110.1 93° 3.0°
27 273° 8150ft / 2484 m 778ft 44.457422 18.740358 - - 3.0°